createdAt,value
2023-05-11T00:02:21.832Z,16.67
2023-05-11T00:04:50.268Z,16.50
2023-05-11T00:07:18.281Z,14.43
2023-05-11T00:09:47.328Z,16.80
2023-05-11T00:12:15.370Z,16.53
2023-05-11T00:14:46.008Z,15.97
2023-05-11T00:17:15.111Z,17.03
2023-05-11T00:19:43.530Z,17.27
2023-05-11T00:22:11.821Z,16.43
2023-05-11T00:24:39.844Z,15.87
2023-05-11T00:27:09.069Z,15.57
2023-05-11T00:29:38.129Z,15.40
2023-05-11T00:32:10.605Z,16.13
2023-05-11T00:34:38.669Z,16.60
2023-05-11T00:37:06.701Z,15.80
2023-05-11T00:39:40.734Z,18.13
2023-05-11T00:42:09.517Z,16.43
2023-05-11T00:44:37.497Z,18.57
2023-05-11T00:47:06.165Z,18.23
2023-05-11T00:49:37.231Z,18.07
2023-05-11T00:52:06.166Z,18.07
2023-05-11T00:54:36.822Z,18.20
2023-05-11T00:57:05.867Z,17.90
2023-05-11T00:59:41.845Z,18.07
2023-05-11T01:02:11.946Z,18.40
2023-05-11T01:04:42.573Z,16.97
2023-05-11T01:07:20.169Z,19.70
2023-05-11T01:10:03.393Z,18.40
2023-05-11T01:12:41.949Z,18.80
2023-05-11T01:15:13.665Z,18.17
2023-05-11T01:17:51.159Z,18.50
2023-05-11T01:20:26.076Z,18.50
2023-05-11T01:23:19.675Z,20.57
2023-05-11T01:26:08.547Z,20.10
2023-05-11T01:29:09.132Z,19.50
2023-05-11T01:31:42.461Z,19.97
2023-05-11T01:34:16.141Z,20.40
2023-05-11T01:36:52.687Z,18.93
2023-05-11T01:39:36.387Z,21.87
2023-05-11T01:42:10.074Z,19.00
2023-05-11T01:44:41.062Z,20.50
2023-05-11T01:47:13.537Z,20.10
2023-05-11T01:49:45.636Z,23.00
2023-05-11T01:52:16.239Z,20.13
2023-05-11T01:54:46.219Z,22.13
2023-05-11T01:57:16.189Z,21.93
2023-05-11T01:59:46.650Z,20.57
2023-05-11T02:02:17.553Z,20.10
2023-05-11T02:04:48.067Z,20.40
2023-05-11T02:07:17.689Z,20.07
2023-05-11T02:09:47.010Z,19.53
2023-05-11T02:12:18.869Z,23.67
2023-05-11T02:14:49.697Z,20.60
2023-05-11T02:17:24.180Z,20.23
2023-05-11T02:19:53.867Z,21.70
2023-05-11T02:22:23.711Z,20.33
2023-05-11T02:24:52.519Z,21.43
2023-05-11T02:27:21.142Z,20.73
2023-05-11T02:29:51.857Z,23.73
2023-05-11T02:32:23.493Z,20.10
2023-05-11T02:35:00.564Z,20.90
2023-05-11T02:37:30.272Z,19.47
2023-05-11T02:40:06.689Z,20.67
2023-05-11T02:42:40.306Z,21.67
2023-05-11T02:45:13.656Z,23.90
2023-05-11T02:47:48.308Z,22.67
2023-05-11T02:50:27.175Z,22.00
2023-05-11T02:52:57.917Z,20.77
2023-05-11T02:55:30.243Z,22.10
2023-05-11T02:57:58.580Z,24.90
2023-05-11T03:00:27.716Z,22.87
2023-05-11T03:02:57.943Z,22.30
2023-05-11T03:05:26.098Z,22.57
2023-05-11T03:07:58.963Z,25.40
2023-05-11T03:10:28.449Z,21.80
2023-05-11T03:12:58.102Z,24.30
2023-05-11T03:15:27.635Z,23.23
2023-05-11T03:18:01.830Z,23.07
2023-05-11T03:20:31.683Z,24.70
2023-05-11T03:23:02.192Z,22.87
2023-05-11T03:25:31.117Z,22.27
2023-05-11T03:28:00.240Z,23.20
2023-05-11T03:30:30.751Z,26.27
2023-05-11T03:33:00.996Z,23.03
2023-05-11T03:35:37.200Z,23.90
2023-05-11T03:38:06.906Z,24.27
2023-05-11T03:40:37.121Z,25.80
2023-05-11T03:43:07.512Z,22.73
2023-05-11T03:45:38.177Z,25.70
2023-05-11T03:48:10.874Z,23.00
2023-05-11T03:50:40.420Z,22.53
2023-05-11T03:53:08.677Z,21.83
2023-05-11T03:55:39.751Z,24.53
2023-05-11T03:58:14.386Z,21.40
2023-05-11T04:00:43.755Z,23.60
2023-05-11T04:03:14.387Z,21.50
2023-05-11T04:05:42.687Z,23.30
2023-05-11T04:08:14.726Z,23.73
2023-05-11T04:10:43.854Z,21.03
2023-05-11T04:13:11.959Z,23.83
2023-05-11T04:15:40.046Z,23.13
2023-05-11T04:18:11.272Z,22.17
2023-05-11T04:20:43.254Z,23.30
2023-05-11T04:23:13.797Z,24.87
2023-05-11T04:25:42.054Z,25.93
2023-05-11T04:28:10.115Z,22.03
2023-05-11T04:30:38.672Z,23.27
2023-05-11T04:33:07.049Z,23.97
2023-05-11T04:35:35.197Z,23.70
2023-05-11T04:38:06.234Z,23.37
2023-05-11T04:40:36.655Z,24.00
2023-05-11T04:43:08.253Z,24.17
2023-05-11T04:45:36.425Z,24.97
2023-05-11T04:48:07.889Z,21.97
2023-05-11T04:50:38.069Z,23.30
2023-05-11T04:53:08.368Z,26.00
2023-05-11T04:55:36.505Z,23.20
2023-05-11T04:58:04.872Z,26.60
2023-05-11T05:00:34.076Z,26.50
2023-05-11T05:03:02.524Z,25.50
2023-05-11T05:05:30.655Z,26.80
2023-05-11T05:07:59.304Z,26.10
2023-05-11T05:10:28.920Z,24.90
2023-05-11T05:12:58.452Z,28.33
2023-05-11T05:15:29.307Z,29.37
2023-05-11T05:17:57.654Z,26.90
2023-05-11T05:20:26.125Z,25.70
2023-05-11T05:22:55.702Z,27.97
2023-05-11T05:25:24.689Z,26.73
2023-05-11T05:27:55.170Z,30.27
2023-05-11T05:30:23.304Z,29.57
2023-05-11T05:32:52.171Z,30.63
2023-05-11T05:35:20.977Z,28.20
2023-05-11T05:37:49.376Z,28.77
2023-05-11T05:40:18.159Z,32.00
2023-05-11T05:43:08.340Z,27.37
2023-05-11T05:45:36.678Z,30.40
2023-05-11T05:48:08.045Z,27.40
2023-05-11T05:50:36.542Z,31.07
2023-05-11T05:53:05.294Z,29.80
2023-05-11T05:55:33.401Z,28.97
2023-05-11T05:58:04.075Z,27.83
2023-05-11T06:00:34.326Z,28.90
2023-05-11T06:03:08.577Z,29.70
2023-05-11T06:05:37.581Z,27.70
2023-05-11T06:08:11.090Z,30.23
2023-05-11T06:10:41.190Z,28.37
2023-05-11T06:13:10.803Z,29.30
2023-05-11T06:15:43.841Z,26.90
2023-05-11T06:18:35.058Z,29.97
2023-05-11T06:21:06.938Z,30.80
2023-05-11T06:23:35.546Z,31.13
2023-05-11T06:26:04.179Z,29.40
2023-05-11T06:28:34.057Z,32.00
2023-05-11T06:31:07.069Z,27.47
2023-05-11T06:33:38.005Z,27.53
2023-05-11T06:36:12.430Z,27.33
2023-05-11T06:38:40.693Z,32.20
2023-05-11T06:41:11.881Z,29.27
2023-05-11T06:43:40.285Z,26.63
2023-05-11T06:46:24.106Z,27.27
2023-05-11T06:48:52.914Z,25.57
2023-05-11T06:51:21.742Z,25.70
2023-05-11T06:53:50.261Z,26.73
2023-05-11T06:56:18.388Z,26.57
2023-05-11T06:58:47.337Z,26.70
2023-05-11T07:01:15.645Z,26.00
2023-05-11T07:03:45.431Z,25.43
2023-05-11T07:06:14.669Z,26.33
2023-05-11T07:08:42.740Z,24.90
2023-05-11T07:11:12.937Z,25.17
2023-05-11T07:13:41.108Z,26.10
2023-05-11T07:16:10.506Z,25.10
2023-05-11T07:18:38.604Z,26.00
2023-05-11T07:21:08.003Z,25.00
2023-05-11T07:23:36.758Z,26.43
2023-05-11T07:26:08.886Z,24.93
2023-05-11T07:28:37.474Z,25.87
2023-05-11T07:31:06.247Z,26.83
2023-05-11T07:33:41.348Z,27.37
2023-05-11T07:36:11.473Z,24.57
2023-05-11T07:38:41.840Z,21.53
2023-05-11T07:41:12.443Z,22.80
2023-05-11T07:43:42.248Z,25.50
2023-05-11T07:46:11.190Z,25.77
2023-05-11T07:48:39.685Z,25.80
2023-05-11T07:51:08.508Z,26.33
2023-05-11T07:53:37.985Z,23.07
2023-05-11T07:56:07.017Z,23.90
2023-05-11T07:58:36.413Z,23.23
2023-05-11T08:01:05.171Z,23.80
2023-05-11T08:03:34.991Z,23.50
2023-05-11T08:06:04.684Z,24.20
2023-05-11T08:08:32.777Z,24.63
2023-05-11T08:11:04.164Z,22.97
2023-05-11T08:13:34.451Z,24.43
2023-05-11T08:16:03.582Z,25.57
2023-05-11T08:18:35.365Z,23.43
2023-05-11T08:21:03.535Z,21.77
2023-05-11T08:23:31.707Z,22.27
2023-05-11T08:26:00.861Z,24.40
2023-05-11T08:28:30.703Z,23.37
2023-05-11T08:31:01.391Z,24.33
2023-05-11T08:36:05.787Z,22.20
2023-05-11T08:38:36.391Z,22.97
2023-05-11T08:41:04.834Z,21.50
2023-05-11T08:43:37.084Z,21.87
2023-05-11T08:46:07.379Z,19.07
2023-05-11T08:48:37.141Z,20.23
2023-05-11T08:51:06.160Z,21.20
2023-05-11T08:53:34.215Z,20.07
2023-05-11T08:56:06.772Z,21.93
2023-05-11T08:58:38.417Z,21.43
2023-05-11T09:01:10.414Z,20.97
2023-05-11T09:03:41.947Z,19.43
2023-05-11T09:06:12.493Z,16.30
2023-05-11T09:08:41.827Z,15.87
2023-05-11T09:11:12.867Z,14.50
2023-05-11T09:13:43.740Z,11.57
2023-05-11T09:16:27.723Z,11.67
2023-05-11T09:19:03.425Z,14.17
2023-05-11T09:21:32.933Z,12.97
2023-05-11T09:24:01.434Z,11.80
2023-05-11T09:26:29.762Z,14.30
2023-05-11T09:29:03.739Z,11.27
2023-05-11T09:31:55.622Z,11.23
2023-05-11T09:34:24.753Z,12.23
2023-05-11T09:36:54.390Z,12.93
2023-05-11T09:39:45.342Z,14.57
2023-05-11T09:42:22.592Z,12.57
2023-05-11T09:44:52.815Z,14.43
2023-05-11T09:47:22.404Z,13.80
2023-05-11T09:49:51.040Z,13.37
2023-05-11T09:52:20.974Z,15.00
2023-05-11T09:54:52.469Z,14.30
2023-05-11T09:57:28.258Z,15.23
2023-05-11T10:00:00.484Z,16.63
2023-05-11T10:02:30.538Z,14.37
2023-05-11T10:05:00.495Z,15.17
2023-05-11T10:07:30.712Z,15.73
2023-05-11T10:10:02.640Z,14.60
2023-05-11T10:12:33.493Z,14.93
2023-05-11T10:15:06.408Z,15.40
2023-05-11T10:17:35.426Z,16.67
2023-05-11T10:20:06.984Z,15.53
2023-05-11T10:22:37.198Z,15.20
2023-05-11T10:25:07.345Z,14.77
2023-05-11T10:27:35.564Z,14.83
2023-05-11T10:30:06.207Z,14.87
2023-05-11T10:32:39.466Z,16.20
2023-05-11T10:35:10.459Z,15.80
2023-05-11T10:37:39.978Z,14.97
2023-05-11T10:40:12.644Z,15.93
2023-05-11T10:43:13.837Z,15.30
2023-05-11T10:45:52.853Z,16.77
2023-05-11T10:49:03.982Z,15.93
2023-05-11T10:52:02.491Z,18.40
2023-05-11T10:54:43.181Z,15.90
2023-05-11T10:57:25.719Z,15.33
2023-05-11T11:00:47.987Z,15.50
2023-05-11T11:03:17.585Z,13.83
2023-05-11T11:05:46.811Z,12.37
2023-05-11T11:08:15.737Z,13.00
2023-05-11T11:10:47.116Z,13.27
2023-05-11T11:13:16.733Z,11.43
2023-05-11T11:16:09.829Z,11.80
2023-05-11T11:18:40.292Z,11.50
2023-05-11T11:21:14.055Z,12.47
2023-05-11T11:23:46.122Z,12.73
2023-05-11T11:26:16.819Z,11.87
2023-05-11T11:29:10.806Z,9.77
2023-05-11T11:31:40.161Z,9.97
2023-05-11T11:34:39.663Z,10.40
2023-05-11T11:37:10.290Z,12.80
2023-05-11T11:39:50.938Z,11.77
2023-05-11T11:42:20.955Z,10.80
2023-05-11T11:44:49.117Z,10.53
2023-05-11T11:47:19.050Z,10.83
2023-05-11T11:49:49.860Z,11.10
2023-05-11T11:52:34.945Z,12.70
2023-05-11T11:55:05.101Z,13.57
2023-05-11T11:57:53.607Z,17.00
2023-05-11T12:00:23.101Z,15.30
2023-05-11T12:02:51.694Z,15.40
2023-05-11T12:05:23.507Z,17.70
2023-05-11T12:07:54.105Z,17.20
2023-05-11T12:10:24.231Z,17.37
2023-05-11T12:12:54.852Z,16.13
2023-05-11T12:15:26.567Z,14.10
2023-05-11T12:17:55.555Z,14.47
2023-05-11T12:20:26.452Z,12.63
2023-05-11T12:22:55.120Z,13.07
2023-05-11T12:25:23.914Z,11.90
2023-05-11T12:27:55.871Z,12.10
2023-05-11T12:30:26.414Z,10.23
2023-05-11T12:32:57.571Z,11.90
2023-05-11T12:35:30.430Z,10.87
2023-05-11T12:38:00.179Z,9.37
2023-05-11T12:40:29.447Z,10.50
2023-05-11T12:42:59.146Z,11.67
2023-05-11T12:45:29.730Z,9.67
2023-05-11T12:47:58.389Z,11.37
2023-05-11T12:50:31.255Z,12.83
2023-05-11T12:53:13.846Z,12.33
2023-05-11T12:55:45.337Z,14.33
2023-05-11T12:58:15.191Z,14.27
2023-05-11T13:00:54.583Z,11.80
2023-05-11T13:03:23.844Z,13.43
2023-05-11T13:06:05.034Z,13.30
2023-05-11T13:08:33.264Z,11.77
2023-05-11T13:11:24.587Z,10.00
2023-05-11T13:13:53.478Z,10.33
2023-05-11T13:16:27.388Z,8.37
2023-05-11T13:18:59.681Z,10.40
2023-05-11T13:21:30.795Z,9.53
2023-05-11T13:23:58.821Z,8.33
2023-05-11T13:26:31.564Z,10.20
2023-05-11T13:29:10.212Z,8.60
2023-05-11T13:31:45.012Z,9.33
2023-05-11T13:34:14.437Z,9.90
2023-05-11T13:36:44.570Z,8.57
2023-05-11T13:39:12.650Z,10.67
2023-05-11T13:41:41.628Z,7.93
2023-05-11T13:44:09.807Z,8.27
2023-05-11T13:46:43.671Z,7.30
2023-05-11T13:49:12.476Z,7.70
2023-05-11T13:51:40.528Z,8.00
2023-05-11T13:54:14.099Z,8.50
2023-05-11T13:56:42.422Z,7.20
2023-05-11T13:59:10.890Z,8.07
2023-05-11T14:01:39.050Z,7.17
2023-05-11T14:04:08.063Z,6.40
2023-05-11T14:06:37.857Z,7.07
2023-05-11T14:09:06.365Z,7.30
2023-05-11T14:11:39.325Z,7.40
2023-05-11T14:14:07.689Z,6.70
2023-05-11T14:16:37.628Z,8.50
2023-05-11T14:19:05.707Z,7.07
2023-05-11T14:21:34.348Z,7.53
2023-05-11T14:24:10.790Z,6.67
2023-05-11T14:26:43.607Z,7.27
2023-05-11T14:29:12.155Z,7.43
2023-05-11T14:31:46.321Z,7.77
2023-05-11T14:34:14.849Z,7.30
2023-05-11T14:36:44.241Z,7.70
2023-05-11T14:39:14.050Z,7.40
2023-05-11T14:41:43.706Z,7.67
2023-05-11T14:44:12.698Z,7.73
2023-05-11T14:46:40.886Z,7.33
2023-05-11T14:49:09.912Z,6.20
2023-05-11T14:51:39.530Z,8.77
2023-05-11T14:54:07.722Z,5.97
2023-05-11T14:56:42.640Z,7.50
2023-05-11T14:59:12.223Z,7.57
2023-05-11T15:01:41.276Z,7.90
2023-05-11T15:04:11.248Z,7.67
2023-05-11T15:06:39.436Z,7.37
2023-05-11T15:09:08.595Z,7.70
2023-05-11T15:11:37.205Z,7.40
2023-05-11T15:14:07.253Z,8.87
2023-05-11T15:16:38.679Z,7.90
2023-05-11T15:19:07.778Z,8.13
2023-05-11T15:21:36.123Z,8.00
2023-05-11T15:24:04.876Z,7.30
2023-05-11T15:26:37.571Z,6.90
2023-05-11T15:29:06.560Z,7.93
2023-05-11T15:31:36.369Z,8.67
2023-05-11T15:34:04.884Z,6.13
2023-05-11T15:36:34.676Z,6.33
2023-05-11T15:39:02.696Z,4.70
2023-05-11T15:41:31.181Z,5.10
2023-05-11T15:43:59.205Z,4.47
2023-05-11T15:46:27.418Z,5.20
2023-05-11T15:48:59.068Z,4.47
2023-05-11T15:51:29.515Z,5.90
2023-05-11T15:53:57.592Z,5.17
2023-05-11T15:56:27.357Z,5.40
2023-05-11T15:58:55.918Z,5.17
2023-05-11T16:01:25.268Z,5.20
2023-05-11T16:03:53.407Z,6.87
2023-05-11T16:06:29.101Z,6.57
2023-05-11T16:08:57.774Z,5.53
2023-05-11T16:11:25.980Z,5.70
2023-05-11T16:13:54.030Z,6.00
2023-05-11T16:16:25.027Z,7.17
2023-05-11T16:18:53.128Z,6.53
2023-05-11T16:21:25.232Z,6.70
2023-05-11T16:23:55.664Z,6.63
2023-05-11T16:26:23.887Z,5.70
2023-05-11T16:28:59.088Z,6.80
2023-05-11T16:31:27.800Z,6.60
2023-05-11T16:33:55.824Z,6.47
2023-05-11T16:36:28.141Z,6.30
2023-05-11T16:38:56.324Z,6.73
2023-05-11T16:41:31.758Z,6.90
2023-05-11T16:44:00.309Z,11.17
2023-05-11T16:46:28.830Z,14.67
2023-05-11T16:48:58.762Z,8.33
2023-05-11T16:51:28.353Z,6.57
2023-05-11T16:53:58.058Z,5.40
2023-05-11T16:56:26.170Z,6.00
2023-05-11T16:58:54.465Z,5.10
2023-05-11T17:01:23.760Z,6.10
2023-05-11T17:03:51.956Z,5.60
2023-05-11T17:06:24.193Z,5.70
2023-05-11T17:08:53.894Z,5.00
2023-05-11T17:11:23.162Z,4.63
2023-05-11T17:13:51.398Z,4.80
2023-05-11T17:16:19.782Z,3.70
2023-05-11T17:18:48.439Z,3.40
2023-05-11T17:21:17.611Z,2.83
2023-05-11T17:23:46.418Z,3.00
2023-05-11T17:26:16.753Z,3.50
2023-05-11T17:28:44.929Z,3.50
2023-05-11T17:31:16.060Z,2.77
2023-05-11T17:33:45.061Z,2.80
2023-05-11T17:36:31.529Z,2.57
2023-05-11T17:39:01.638Z,3.20
2023-05-11T17:41:31.966Z,2.70
2023-05-11T17:44:02.015Z,2.57
2023-05-11T17:46:30.654Z,2.87
2023-05-11T17:48:58.781Z,3.20
2023-05-11T17:51:27.060Z,3.50
2023-05-11T17:53:56.178Z,3.67
2023-05-11T17:56:25.723Z,2.83
2023-05-11T17:58:55.954Z,2.80
2023-05-11T18:01:24.066Z,2.10
2023-05-11T18:03:52.646Z,1.80
2023-05-11T18:06:21.276Z,2.23
2023-05-11T18:08:49.644Z,2.30
2023-05-11T18:11:17.635Z,2.63
2023-05-11T18:13:46.150Z,1.90
2023-05-11T18:16:16.030Z,2.40
2023-05-11T18:18:44.890Z,2.30
2023-05-11T18:21:13.197Z,2.87
2023-05-11T18:23:41.967Z,2.43
2023-05-11T18:26:11.057Z,3.60
2023-05-11T18:28:39.210Z,2.50
2023-05-11T18:31:07.880Z,2.90
2023-05-11T18:33:37.315Z,2.87
2023-05-11T18:36:06.054Z,3.73
2023-05-11T18:38:34.265Z,3.00
2023-05-11T18:41:05.858Z,2.70
2023-05-11T18:43:35.572Z,3.70
2023-05-11T18:46:08.248Z,3.40
2023-05-11T18:48:39.807Z,3.60
2023-05-11T18:51:08.166Z,4.10
2023-05-11T18:53:36.439Z,5.10
2023-05-11T18:56:05.689Z,5.60
2023-05-11T18:58:34.061Z,5.13
2023-05-11T19:01:02.113Z,5.83
2023-05-11T19:03:32.257Z,4.23
2023-05-11T19:06:02.533Z,4.90
2023-05-11T19:08:31.254Z,4.40
2023-05-11T19:10:59.298Z,4.50
2023-05-11T19:13:27.796Z,4.10
2023-05-11T19:15:55.882Z,4.53
2023-05-11T19:18:25.438Z,4.57
2023-05-11T19:20:54.964Z,4.87
2023-05-11T19:23:24.433Z,3.83
2023-05-11T19:25:52.917Z,4.73
2023-05-11T19:28:21.332Z,5.33
2023-05-11T19:30:50.091Z,5.40
2023-05-11T19:33:18.175Z,6.57
2023-05-11T19:35:46.981Z,5.47
2023-05-11T19:38:15.076Z,6.20
2023-05-11T19:40:46.447Z,5.67
2023-05-11T19:43:15.666Z,6.57
2023-05-11T19:45:45.383Z,5.80
2023-05-11T19:48:14.381Z,6.50
2023-05-11T19:50:43.039Z,5.73
2023-05-11T19:53:11.536Z,6.60
2023-05-11T19:55:40.872Z,5.40
2023-05-11T19:58:10.312Z,6.30
2023-05-11T20:00:40.947Z,7.10
2023-05-11T20:03:09.473Z,6.97
2023-05-11T20:05:38.058Z,7.07
2023-05-11T20:08:07.245Z,8.53
2023-05-11T20:10:36.390Z,6.80
2023-05-11T20:13:06.112Z,8.30
2023-05-11T20:15:35.947Z,8.13
2023-05-11T20:18:06.489Z,7.90
2023-05-11T20:20:35.422Z,10.37
2023-05-11T20:23:03.663Z,9.10
2023-05-11T20:25:54.058Z,8.80
2023-05-11T20:28:22.427Z,9.40
2023-05-11T20:30:52.411Z,9.67
2023-05-11T20:35:53.371Z,9.47
2023-05-11T20:38:22.164Z,9.77
2023-05-11T20:40:51.852Z,11.17
2023-05-11T20:43:19.933Z,10.40
2023-05-11T20:48:41.273Z,11.13
2023-05-11T20:51:10.528Z,10.47
2023-05-11T20:53:38.973Z,10.77
2023-05-11T20:56:08.576Z,11.93
2023-05-11T20:58:37.654Z,13.77
2023-05-11T21:01:08.786Z,12.60
2023-05-11T21:03:36.969Z,10.80
2023-05-11T21:06:09.016Z,11.70
2023-05-11T21:08:37.101Z,11.97
2023-05-11T21:11:05.473Z,10.43
2023-05-11T21:13:34.459Z,11.73
2023-05-11T21:16:02.543Z,13.17
2023-05-11T21:18:34.097Z,10.20
2023-05-11T21:21:02.282Z,11.90
2023-05-11T21:23:31.918Z,10.70
2023-05-11T21:26:00.776Z,12.10
2023-05-11T21:28:31.656Z,12.97
2023-05-11T21:31:03.033Z,14.97
2023-05-11T21:33:33.056Z,11.53
2023-05-11T21:36:01.100Z,15.17
2023-05-11T21:38:30.943Z,12.50
2023-05-11T21:41:02.909Z,14.90
2023-05-11T21:43:31.100Z,14.67
2023-05-11T21:45:59.269Z,15.90
2023-05-11T21:48:30.322Z,12.67
2023-05-11T21:50:59.182Z,13.90
2023-05-11T21:53:28.075Z,16.70
2023-05-11T21:55:57.902Z,15.83
2023-05-11T21:58:26.244Z,13.47
2023-05-11T22:00:55.524Z,13.83
2023-05-11T22:03:23.854Z,13.80
2023-05-11T22:05:52.215Z,10.87
2023-05-11T22:08:20.285Z,15.20
2023-05-11T22:10:48.307Z,13.30
2023-05-11T22:13:18.112Z,13.27
2023-05-11T22:15:47.055Z,11.73
2023-05-11T22:18:15.700Z,15.10
2023-05-11T22:20:44.245Z,14.00
2023-05-11T22:23:14.136Z,14.33
2023-05-11T22:25:44.455Z,14.50
2023-05-11T22:28:12.556Z,13.90
2023-05-11T22:30:41.939Z,15.37
2023-05-11T22:33:11.119Z,14.07
2023-05-11T22:35:39.767Z,14.00
2023-05-11T22:38:07.955Z,9.90
2023-05-11T22:40:36.342Z,9.90
2023-05-11T22:43:04.638Z,8.10
2023-05-11T22:45:32.859Z,9.33
2023-05-11T22:48:02.692Z,7.80
2023-05-11T22:50:31.610Z,9.20
2023-05-11T22:53:00.094Z,6.97
2023-05-11T22:55:28.680Z,7.80
2023-05-11T22:57:56.983Z,7.10
2023-05-11T23:00:25.325Z,7.30
2023-05-11T23:02:53.931Z,6.80
2023-05-11T23:05:23.332Z,9.93
2023-05-11T23:07:51.804Z,9.03
2023-05-11T23:10:21.947Z,10.33
2023-05-11T23:12:50.312Z,10.77
2023-05-11T23:15:18.672Z,11.70
2023-05-11T23:17:48.360Z,14.30
2023-05-11T23:20:17.197Z,18.10
2023-05-11T23:22:49.879Z,13.37
2023-05-11T23:25:18.465Z,14.07
2023-05-11T23:27:47.451Z,14.20
2023-05-11T23:30:15.608Z,13.90
2023-05-11T23:32:43.757Z,15.20
2023-05-11T23:35:12.450Z,14.23
2023-05-11T23:37:40.593Z,13.23
2023-05-11T23:40:11.118Z,14.20
2023-05-11T23:42:39.913Z,15.37
2023-05-11T23:45:09.697Z,17.40
2023-05-11T23:47:38.629Z,14.90
2023-05-11T23:50:07.886Z,14.43
2023-05-11T23:52:36.492Z,14.33
2023-05-11T23:55:05.266Z,14.80
2023-05-11T23:57:35.209Z,15.00
